Time;durP1;ratioP1;P1;durP2;ratioP2;P2;SDS_P1;SDS_P2;PMS_P1;PMS_P2;Temp;Humidity;BMP_temperature;BMP_pressure;BME280_temperature;BME280_humidity;BME280_pressure;Samples;Min_cycle;Max_cycle;Signal;HPM_P1;HPM_P2
2022/01/31 00:00:55;;;;;;;;;3.50;2.25;;;;;21.23;33.97;101937.59;5072251;28;52641;-46
2022/01/31 00:03:21;;;;;;;;;4.50;3.00;;;;;21.20;34.30;101951.78;5065609;28;51023;-45
2022/01/31 00:05:46;;;;;;;;;5.00;5.00;;;;;21.20;34.48;101927.84;5065581;28;51309;-47
2022/01/31 00:08:12;;;;;;;;;3.00;3.00;;;;;21.19;34.47;101925.28;5061450;28;51958;-50
2022/01/31 00:10:37;;;;;;;;;4.00;4.00;;;;;21.17;34.46;101925.50;5060938;28;51077;-47
2022/01/31 00:15:29;;;;;;;;;4.25;3.00;;;;;21.14;34.39;101898.31;5070821;28;52147;-48
2022/01/31 00:17:55;;;;;;;;;3.75;3.75;;;;;21.11;34.52;101884.97;5071428;27;52117;-46
2022/01/31 00:20:20;;;;;;;;;4.25;4.00;;;;;21.10;34.10;101886.03;5061896;27;51095;-47
2022/01/31 00:22:45;;;;;;;;;6.00;5.00;;;;;21.09;34.14;101877.97;5062664;28;51051;-47
2022/01/31 00:25:11;;;;;;;;;5.75;4.00;;;;;21.08;34.20;101881.78;5065933;28;51204;-44
2022/01/31 00:27:36;;;;;;;;;4.50;3.00;;;;;21.06;34.31;101878.38;5065507;28;51820;-47
2022/01/31 00:30:03;;;;;;;;;5.75;5.75;;;;;21.04;34.31;101879.41;5066403;28;51063;-47
2022/01/31 00:32:29;;;;;;;;;3.00;3.00;;;;;21.03;34.60;101871.34;5072345;28;51073;-45
2022/01/31 00:34:59;;;;;;;;;5.75;4.25;;;;;21.02;34.40;101861.38;5064153;28;51041;-45
2022/01/31 00:37:25;;;;;;;;;6.00;3.50;;;;;21.01;34.22;101854.16;5065990;28;51840;-48
2022/01/31 00:39:51;;;;;;;;;4.00;4.00;;;;;20.99;34.66;101848.00;5060651;27;50895;-47
2022/01/31 00:42:16;;;;;;;;;3.50;3.50;;;;;20.98;34.13;101854.56;5068134;27;51039;-49
2022/01/31 00:44:53;;;;;;;;;3.25;3.25;;;;;20.96;34.43;101865.81;5067730;28;50920;-49
2022/01/31 00:47:22;;;;;;;;;5.00;4.00;;;;;20.95;34.66;101866.00;5067818;28;50891;-49
2022/01/31 00:52:38;;;;;;;;;5.00;3.50;;;;;20.92;34.75;101869.13;5056279;28;51191;-46
2022/01/31 00:55:05;;;;;;;;;3.50;3.50;;;;;20.91;34.81;101867.44;5064576;28;51137;-46
2022/01/31 00:57:30;;;;;;;;;4.00;4.00;;;;;20.89;34.43;101867.66;5064464;28;52803;-45
2022/01/31 00:59:56;;;;;;;;;6.50;3.00;;;;;20.88;34.14;101865.94;5056670;28;51378;-48
2022/01/31 01:02:22;;;;;;;;;3.50;2.25;;;;;20.88;34.31;101851.31;5063136;28;51104;-45
2022/01/31 01:04:48;;;;;;;;;4.00;3.25;;;;;20.86;34.32;101839.66;5059218;28;50970;-45
2022/01/31 01:07:14;;;;;;;;;4.50;3.50;;;;;20.86;34.11;101823.16;5069461;28;52055;-45
2022/01/31 01:09:44;;;;;;;;;2.50;2.25;;;;;20.84;34.30;101815.09;5064678;28;51145;-49
2022/01/31 01:12:11;;;;;;;;;4.00;2.00;;;;;20.84;34.66;101816.97;5065787;28;51933;-45
2022/01/31 01:14:37;;;;;;;;;3.50;3.50;;;;;20.83;34.43;101834.53;5064763;28;51083;-49
2022/01/31 01:17:03;;;;;;;;;3.50;2.00;;;;;20.81;34.30;101822.88;5065955;28;51066;-45
2022/01/31 01:19:28;;;;;;;;;2.00;2.00;;;;;20.79;34.30;101801.06;5067387;27;50855;-49
2022/01/31 01:21:54;;;;;;;;;4.75;2.00;;;;;20.80;34.29;101808.25;5059594;28;51130;-48
2022/01/31 01:24:19;;;;;;;;;2.75;2.00;;;;;20.78;34.82;101799.34;5065019;28;50928;-47
2022/01/31 01:26:46;;;;;;;;;2.75;2.75;;;;;20.78;34.22;101795.75;5068656;28;52223;-46
2022/01/31 01:29:12;;;;;;;;;2.25;2.25;;;;;20.77;34.34;101786.63;5070948;28;51257;-46
2022/01/31 01:31:37;;;;;;;;;3.75;3.00;;;;;20.75;34.39;101773.09;5058629;28;51165;-46
2022/01/31 01:34:03;;;;;;;;;1.75;1.75;;;;;20.76;34.66;101751.91;5064863;28;51217;-46
2022/01/31 01:36:28;;;;;;;;;1.50;1.50;;;;;20.75;34.63;101759.31;5062789;28;51746;-48
2022/01/31 01:38:54;;;;;;;;;3.50;2.25;;;;;20.74;34.23;101738.34;5066573;28;51077;-46
2022/01/31 01:41:19;;;;;;;;;3.00;2.00;;;;;20.74;34.69;101723.72;5057813;28;51124;-45
2022/01/31 01:43:45;;;;;;;;;3.00;1.50;;;;;20.72;34.64;101734.91;5070894;28;51040;-48
2022/01/31 01:46:10;;;;;;;;;3.50;3.50;;;;;20.72;34.80;101731.31;5063978;28;51889;-45
2022/01/31 01:48:36;;;;;;;;;2.00;2.00;;;;;20.70;34.48;101719.66;5066873;28;51336;-44
2022/01/31 01:51:02;;;;;;;;;3.00;2.00;;;;;20.68;34.59;101717.13;5069042;28;51080;-44
2022/01/31 01:53:28;;;;;;;;;2.50;1.00;;;;;20.69;34.78;101723.47;5070672;28;51077;-47
2022/01/31 01:55:54;;;;;;;;;2.75;1.00;;;;;20.68;34.55;101733.63;5066566;28;53782;-45
2022/01/31 01:58:21;;;;;;;;;3.00;2.25;;;;;20.67;34.33;101731.94;5068392;28;50858;-46
2022/01/31 02:01:02;;;;;;;;;3.00;3.00;;;;;20.67;34.43;101733.84;5069343;28;51201;-48
2022/01/31 02:03:29;;;;;;;;;2.00;2.00;;;;;20.67;34.79;101731.09;5070689;28;50980;-46
2022/01/31 02:05:56;;;;;;;;;2.00;2.00;;;;;20.65;34.19;101725.78;5068058;28;50912;-46
2022/01/31 02:08:23;;;;;;;;;2.75;2.75;;;;;20.65;34.57;101733.19;5070376;28;50938;-45
2022/01/31 02:10:49;;;;;;;;;1.75;1.00;;;;;20.63;34.53;101730.63;5069525;28;51066;-45
2022/01/31 02:13:15;;;;;;;;;2.00;2.00;;;;;20.63;34.60;101718.75;5068262;27;50962;-46
2022/01/31 02:15:44;;;;;;;;;3.25;2.00;;;;;20.62;34.31;101723.41;5064024;28;51127;-46
2022/01/31 02:18:10;;;;;;;;;2.50;1.50;;;;;20.61;34.98;101710.72;5067924;28;51400;-51
2022/01/31 02:20:40;;;;;;;;;2.00;2.00;;;;;20.61;34.53;101699.69;5060017;28;51107;-46
2022/01/31 02:23:07;;;;;;;;;1.50;1.50;;;;;20.60;34.42;101687.00;5063818;28;50983;-47
2022/01/31 02:25:50;;;;;;;;;3.50;2.25;;;;;20.60;34.72;101691.66;5066591;27;51936;-48
2022/01/31 02:28:15;;;;;;;;;2.75;1.25;;;;;20.59;34.78;101695.44;5065857;28;52855;-48
2022/01/31 02:30:40;;;;;;;;;1.50;1.50;;;;;20.58;34.98;101694.59;5065094;28;51134;-45
2022/01/31 02:33:06;;;;;;;;;1.00;1.00;;;;;20.58;34.95;101677.25;5089995;27;51536;-49
2022/01/31 02:35:31;;;;;;;;;3.00;2.00;;;;;20.56;34.79;101662.84;5061672;28;51063;-45
2022/01/31 02:37:56;;;;;;;;;2.00;2.00;;;;;20.56;35.01;101663.69;5059531;28;51054;-47
2022/01/31 02:40:24;;;;;;;;;1.75;1.00;;;;;20.56;34.66;101657.34;5060362;28;52011;-45
2022/01/31 02:42:53;;;;;;;;;3.00;2.00;;;;;20.55;34.50;101647.38;5065019;28;50956;-45
2022/01/31 02:45:18;;;;;;;;;1.75;1.75;;;;;20.53;35.03;101666.84;5061242;28;51692;-47
2022/01/31 02:47:51;;;;;;;;;1.75;1.75;;;;;20.53;34.74;101649.47;5069638;28;51119;-44
2022/01/31 02:50:16;;;;;;;;;2.00;1.00;;;;;20.53;34.72;101649.47;5061407;28;50889;-47
2022/01/31 02:52:47;;;;;;;;;3.00;1.00;;;;;20.52;35.15;101632.09;5064724;28;51325;-47
2022/01/31 02:55:13;;;;;;;;;0.25;0.25;;;;;20.50;34.97;101630.59;5059771;28;51976;-45
2022/01/31 02:57:39;;;;;;;;;2.00;2.00;;;;;20.49;34.95;101631.66;5067196;28;51030;-45
2022/01/31 03:00:08;;;;;;;;;1.50;1.00;;;;;20.49;34.81;101635.25;5072397;28;51413;-46
2022/01/31 03:02:33;;;;;;;;;2.00;2.00;;;;;20.49;34.66;101628.91;5065991;28;51142;-46
2022/01/31 03:04:59;;;;;;;;;1.00;1.00;;;;;20.47;35.16;101604.34;5063824;28;52138;-47
2022/01/31 03:07:24;;;;;;;;;1.25;1.25;;;;;20.46;35.22;101613.66;5065957;28;52459;-45
2022/01/31 03:09:49;;;;;;;;;2.25;1.25;;;;;20.45;34.83;101600.97;5066500;28;51099;-46
2022/01/31 03:12:15;;;;;;;;;1.50;1.00;;;;;20.45;35.18;101595.47;5062537;28;51536;-45
2022/01/31 03:14:42;;;;;;;;;1.00;0.75;;;;;20.44;35.10;101599.25;5062785;28;51058;-46
2022/01/31 03:17:09;;;;;;;;;0.50;0.50;;;;;20.42;35.19;101577.41;5066592;28;51746;-46
2022/01/31 03:19:38;;;;;;;;;2.00;1.00;;;;;20.42;34.97;101588.44;5069650;27;51396;-44
2022/01/31 03:22:06;;;;;;;;;2.50;0.50;;;;;20.42;35.26;101593.06;5066771;28;51238;-45
2022/01/31 03:24:33;;;;;;;;;1.50;1.00;;;;;20.41;35.07;101572.94;5069461;28;52735;-47
2022/01/31 03:26:58;;;;;;;;;1.00;1.00;;;;;20.41;35.08;101583.94;5066955;28;50857;-47
2022/01/31 03:29:24;;;;;;;;;3.00;0.75;;;;;20.40;35.28;101587.75;5064171;28;51039;-46
2022/01/31 03:31:49;;;;;;;;;1.00;1.00;;;;;20.40;35.23;101589.66;5063097;28;51073;-46
2022/01/31 03:34:15;;;;;;;;;1.00;1.00;;;;;20.39;35.28;101599.81;5067483;28;51915;-45
2022/01/31 03:36:40;;;;;;;;;1.75;1.25;;;;;20.39;35.27;101582.47;5065886;28;51047;-46
2022/01/31 03:39:05;;;;;;;;;0.75;0.75;;;;;20.38;35.25;101589.03;5068576;28;51049;-44
2022/01/31 03:41:31;;;;;;;;;2.50;1.75;;;;;20.37;35.29;101592.84;5062196;28;50995;-44
2022/01/31 03:43:56;;;;;;;;;1.25;1.00;;;;;20.36;34.90;101583.72;5068653;27;51155;-44
2022/01/31 03:46:23;;;;;;;;;1.50;1.50;;;;;20.36;35.42;101564.47;5067175;28;51357;-47
2022/01/31 03:48:49;;;;;;;;;2.00;2.00;;;;;20.35;35.39;101553.66;5065506;28;52342;-45
2022/01/31 03:51:15;;;;;;;;;2.00;1.00;;;;;20.34;35.53;101552.81;5070999;28;51072;-45
2022/01/31 03:53:40;;;;;;;;;4.25;0.75;;;;;20.34;35.54;101549.22;5060557;28;52997;-46
2022/01/31 03:56:05;;;;;;;;;1.00;0.50;;;;;20.34;35.08;101543.72;5072899;27;51004;-47
2022/01/31 03:58:31;;;;;;;;;1.00;1.00;;;;;20.34;35.20;101524.47;5077378;27;51020;-47
2022/01/31 04:00:56;;;;;;;;;1.00;1.00;;;;;20.32;35.24;101523.78;5065966;28;51613;-45
2022/01/31 04:03:22;;;;;;;;;0.00;0.00;;;;;20.31;35.52;101555.13;5057399;28;51882;-48
2022/01/31 04:05:47;;;;;;;;;0.25;0.25;;;;;20.32;35.29;101565.94;5065832;28;51113;-49
2022/01/31 04:08:12;;;;;;;;;0.00;0.00;;;;;20.32;35.30;101573.31;5089696;27;50986;-47
2022/01/31 04:10:38;;;;;;;;;0.25;0.25;;;;;20.31;35.52;101566.13;5066513;28;50941;-45
2022/01/31 04:13:06;;;;;;;;;0.00;0.00;;;;;20.31;35.47;101569.72;5067666;28;51158;-45
2022/01/31 04:15:32;;;;;;;;;1.00;1.00;;;;;20.30;35.29;101559.78;5068321;28;51375;-46
2022/01/31 04:17:57;;;;;;;;;0.75;0.75;;;;;20.30;35.31;101572.69;5066396;28;51048;-46
2022/01/31 04:20:23;;;;;;;;;0.50;0.00;;;;;20.30;35.78;101567.19;5065526;28;51014;-46
2022/01/31 04:23:07;;;;;;;;;1.75;1.75;;;;;20.28;35.30;101561.03;5066238;28;51624;-52
2022/01/31 04:28:32;;;;;;;;;0.00;0.00;;;;;20.28;35.56;101563.78;5050225;28;51067;-45
2022/01/31 04:31:14;;;;;;;;;0.75;0.00;;;;;20.28;35.90;101577.53;5055964;28;51031;-47
2022/01/31 04:33:40;;;;;;;;;0.75;0.50;;;;;20.27;35.62;101573.94;5066874;28;51872;-44
2022/01/31 04:36:14;;;;;;;;;0.25;0.25;;;;;20.27;35.66;101573.09;5063975;28;51290;-46
2022/01/31 04:38:43;;;;;;;;;0.00;0.00;;;;;20.25;35.51;101584.31;5060539;28;50987;-48
2022/01/31 04:41:09;;;;;;;;;0.00;0.00;;;;;20.26;35.78;101585.16;5073749;28;50914;-46
2022/01/31 04:43:35;;;;;;;;;1.00;0.00;;;;;20.26;35.76;101585.16;5067686;28;51896;-49
2022/01/31 04:46:04;;;;;;;;;0.00;0.00;;;;;20.26;35.51;101582.41;5068144;28;51062;-47
2022/01/31 04:48:30;;;;;;;;;1.00;1.00;;;;;20.24;35.76;101570.75;5061676;28;51027;-44
2022/01/31 04:50:55;;;;;;;;;1.00;0.75;;;;;20.24;35.71;101560.59;5060641;28;51232;-45
2022/01/31 04:53:21;;;;;;;;;0.00;0.00;;;;;20.23;35.84;101558.91;5059615;28;51862;-44
2022/01/31 04:55:46;;;;;;;;;0.00;0.00;;;;;20.23;35.73;101563.56;5083902;27;51069;-45
2022/01/31 04:58:12;;;;;;;;;0.00;0.00;;;;;20.22;35.69;101564.59;5061568;28;50906;-44
2022/01/31 05:00:38;;;;;;;;;0.00;0.00;;;;;20.21;36.28;101574.75;5071562;28;51028;-47
2022/01/31 05:03:09;;;;;;;;;0.00;0.00;;;;;20.22;35.81;101583.84;5069108;28;51897;-46
2022/01/31 05:05:35;;;;;;;;;0.00;0.00;;;;;20.21;36.10;101576.66;5065780;28;51115;-45
2022/01/31 05:08:00;;;;;;;;;1.75;0.00;;;;;20.20;36.07;101581.28;5064709;28;51072;-46
2022/01/31 05:10:26;;;;;;;;;0.00;0.00;;;;;20.19;35.73;101585.94;5064415;28;51114;-46
2022/01/31 05:12:51;;;;;;;;;1.00;0.00;;;;;20.19;35.62;101574.09;5066623;28;51084;-44
2022/01/31 05:15:16;;;;;;;;;0.00;0.00;;;;;20.18;35.60;101573.25;5060255;28;51160;-49
2022/01/31 05:17:42;;;;;;;;;2.00;1.00;;;;;20.18;35.80;101592.50;5065468;27;51194;-48
2022/01/31 05:20:07;;;;;;;;;0.00;0.00;;;;;20.19;35.77;101596.09;5064943;28;50917;-46
2022/01/31 05:22:33;;;;;;;;;0.50;0.50;;;;;20.17;35.83;101593.56;5063987;28;51587;-45
2022/01/31 05:24:58;;;;;;;;;1.00;1.00;;;;;20.17;35.57;101588.06;5070355;28;51092;-45
2022/01/31 05:27:24;;;;;;;;;4.75;0.50;;;;;20.17;35.79;101584.47;5075029;28;51558;-46
2022/01/31 05:29:49;;;;;;;;;0.25;0.00;;;;;20.15;35.92;101605.81;5063452;28;51105;-45
2022/01/31 05:32:14;;;;;;;;;0.00;0.00;;;;;20.16;35.75;101605.63;5065848;28;51059;-45
2022/01/31 05:34:40;;;;;;;;;0.00;0.00;;;;;20.15;35.69;101601.19;5060245;28;51141;-50
2022/01/31 05:37:06;;;;;;;;;0.00;0.00;;;;;20.14;35.94;101613.22;5067806;28;51120;-52
2022/01/31 05:39:31;;;;;;;;;1.25;0.50;;;;;20.14;35.92;101604.13;5065880;28;50929;-45
2022/01/31 05:41:57;;;;;;;;;0.00;0.00;;;;;20.13;35.69;101608.78;5069885;28;51667;-52
2022/01/31 05:44:24;;;;;;;;;0.00;0.00;;;;;20.13;35.86;101605.19;5070546;27;51168;-46
2022/01/31 05:46:50;;;;;;;;;0.00;0.00;;;;;20.12;35.58;101609.84;5068308;28;51297;-44
2022/01/31 05:49:16;;;;;;;;;0.00;0.00;;;;;20.12;35.55;101604.34;5067748;28;51361;-46
2022/01/31 05:52:05;;;;;;;;;1.00;1.00;;;;;20.12;35.75;101609.84;5066692;28;50943;-47
2022/01/31 05:54:32;;;;;;;;;1.00;0.00;;;;;20.12;35.71;101617.25;5056083;28;50953;-45
2022/01/31 05:56:59;;;;;;;;;0.00;0.00;;;;;20.12;35.64;101615.34;5072121;28;51186;-45
2022/01/31 05:59:25;;;;;;;;;0.50;0.50;;;;;20.11;35.57;101612.75;5069224;28;50990;-44
2022/01/31 06:01:51;;;;;;;;;0.00;0.00;;;;;20.10;35.60;101603.66;5066973;28;51232;-45
2022/01/31 06:04:16;;;;;;;;;2.75;1.00;;;;;20.09;35.82;101596.47;5068348;28;51421;-47
2022/01/31 06:06:41;;;;;;;;;0.00;0.00;;;;;20.09;35.93;101593.72;5061691;28;51062;-50
2022/01/31 06:09:07;;;;;;;;;0.50;0.00;;;;;20.08;35.87;101608.53;5071628;28;51245;-44
2022/01/31 06:11:34;;;;;;;;;1.25;1.25;;;;;20.07;35.54;101631.59;5064210;28;52251;-43
2022/01/31 06:14:10;;;;;;;;;0.75;0.00;;;;;20.06;35.25;101623.53;5065020;28;51016;-44
2022/01/31 06:16:35;;;;;;;;;1.25;1.00;;;;;20.04;35.02;101620.13;5075526;28;51014;-44
2022/01/31 06:19:01;;;;;;;;;1.75;0.50;;;;;20.02;34.92;101631.34;5066886;28;51973;-44
2022/01/31 06:21:27;;;;;;;;;2.00;1.00;;;;;19.99;34.64;101637.22;5062006;28;52656;-44
2022/01/31 06:23:53;;;;;;;;;0.50;0.50;;;;;19.96;34.59;101640.38;5068750;27;51082;-46
2022/01/31 06:26:20;;;;;;;;;1.00;0.00;;;;;19.94;34.05;101636.13;5068767;28;51164;-44
2022/01/31 06:28:47;;;;;;;;;1.00;1.00;;;;;19.91;34.40;101626.41;5057180;28;51303;-45
2022/01/31 06:31:12;;;;;;;;;1.00;1.00;;;;;19.88;33.89;101633.13;5053694;28;52322;-46
2022/01/31 06:33:38;;;;;;;;;1.00;1.00;;;;;19.85;33.78;101625.28;5082312;27;50965;-44
2022/01/31 06:36:03;;;;;;;;;2.50;2.00;;;;;19.83;33.82;101632.03;5058027;28;51135;-45
2022/01/31 06:38:29;;;;;;;;;3.75;2.00;;;;;19.80;33.72;101626.91;5054197;28;51163;-46
2022/01/31 06:40:55;;;;;;;;;4.75;2.00;;;;;19.78;33.88;101620.78;5062238;28;52180;-46
2022/01/31 06:43:21;;;;;;;;;1.75;1.00;;;;;19.81;33.60;101625.91;5063133;28;51399;-47
2022/01/31 06:45:46;;;;;;;;;0.50;0.50;;;;;19.87;33.73;101622.34;5064616;28;51163;-44
2022/01/31 06:48:12;;;;;;;;;0.50;0.50;;;;;19.96;34.10;101621.13;5056903;28;51330;-47
2022/01/31 06:50:38;;;;;;;;;1.50;1.00;;;;;20.05;34.11;101616.34;5056777;28;51661;-46
2022/01/31 06:53:05;;;;;;;;;1.75;1.00;;;;;20.13;34.08;101618.94;5068080;28;51054;-48
2022/01/31 06:55:33;;;;;;;;;1.00;1.00;;;;;20.22;34.04;101619.59;5057186;28;51898;-45
2022/01/31 06:57:59;;;;;;;;;2.25;0.25;;;;;20.30;34.08;101619.44;5068915;28;51131;-47
2022/01/31 07:00:24;;;;;;;;;3.50;1.00;;;;;20.38;34.15;101622.91;5067751;28;51278;-48
2022/01/31 07:02:50;;;;;;;;;0.00;0.00;;;;;20.48;34.28;101617.06;5061822;28;51138;-47
2022/01/31 07:05:17;;;;;;;;;2.00;2.00;;;;;20.55;34.54;101637.22;5058740;28;51023;-46
2022/01/31 07:07:43;;;;;;;;;1.25;1.25;;;;;20.64;34.46;101635.16;5057651;28;50958;-48
2022/01/31 07:10:09;;;;;;;;;1.75;0.25;;;;;20.71;34.40;101645.13;5059517;28;51135;-47
2022/01/31 07:12:38;;;;;;;;;2.50;1.00;;;;;20.80;34.09;101653.22;5068248;28;51204;-45
2022/01/31 07:15:10;;;;;;;;;1.50;0.00;;;;;20.88;34.12;101642.88;5064645;28;51175;-47
2022/01/31 07:17:37;;;;;;;;;1.00;0.00;;;;;20.95;34.24;101646.50;5067276;28;51092;-45
2022/01/31 07:20:10;;;;;;;;;1.00;1.00;;;;;21.01;34.61;101653.94;5063743;28;52129;-47
2022/01/31 07:22:38;;;;;;;;;1.00;1.00;;;;;21.08;34.60;101661.38;5063310;28;51563;-46
2022/01/31 07:25:08;;;;;;;;;2.25;0.00;;;;;21.15;34.51;101665.84;5063492;28;51147;-49
2022/01/31 07:27:34;;;;;;;;;1.25;0.25;;;;;21.17;34.69;101669.25;5069133;28;51035;-46
2022/01/31 07:30:00;;;;;;;;;0.25;0.25;;;;;21.19;34.16;101685.56;5054376;28;54233;-46
2022/01/31 07:32:28;;;;;;;;;0.00;0.00;;;;;21.20;34.45;101681.75;5055500;28;51160;-46
2022/01/31 07:34:55;;;;;;;;;0.25;0.00;;;;;21.17;34.72;101679.44;5071226;27;51178;-45
2022/01/31 07:37:24;;;;;;;;;3.75;1.00;;;;;21.18;35.15;101678.38;5061576;28;51198;-47
2022/01/31 07:39:50;;;;;;;;;1.00;1.00;;;;;21.18;34.96;101672.84;5066334;28;51661;-46
2022/01/31 07:42:17;;;;;;;;;1.00;1.00;;;;;21.17;34.54;101682.19;5063748;28;51139;-47
2022/01/31 07:44:43;;;;;;;;;2.75;1.00;;;;;21.18;35.21;101689.38;5063339;28;51350;-45
2022/01/31 07:47:08;;;;;;;;;3.25;2.00;;;;;21.17;35.02;101688.53;5054477;28;51328;-48
2022/01/31 07:49:34;;;;;;;;;4.00;1.50;;;;;21.18;34.86;101683.88;5064253;28;51825;-48
2022/01/31 07:52:00;;;;;;;;;7.75;4.00;;;;;21.18;34.63;101695.75;5061044;28;51061;-49
2022/01/31 07:54:26;;;;;;;;;6.25;2.50;;;;;21.18;34.70;101700.41;5054037;28;51132;-48
2022/01/31 07:56:52;;;;;;;;;5.50;1.50;;;;;21.16;34.38;101695.09;5056354;28;51369;-46
2022/01/31 07:59:17;;;;;;;;;3.75;2.00;;;;;21.12;34.26;101710.34;5063978;28;51108;-48
2022/01/31 08:01:43;;;;;;;;;3.75;2.25;;;;;21.09;34.54;101702.50;5065016;28;51084;-45
2022/01/31 08:04:10;;;;;;;;;4.75;3.00;;;;;21.05;33.93;101715.00;5057895;28;51346;-46
2022/01/31 08:06:36;;;;;;;;;4.75;2.50;;;;;21.01;34.42;101710.94;5055569;28;51296;-47
2022/01/31 08:09:03;;;;;;;;;3.00;1.00;;;;;20.96;34.19;101719.81;5075682;28;51335;-48
2022/01/31 08:11:32;;;;;;;;;6.25;1.75;;;;;20.95;34.07;101720.03;5068927;28;51294;-48
2022/01/31 08:14:00;;;;;;;;;4.00;1.75;;;;;20.91;33.81;101714.06;5063143;27;50947;-47
2022/01/31 08:16:25;;;;;;;;;3.00;3.00;;;;;20.87;34.30;101729.28;5066997;28;50948;-46
2022/01/31 08:18:51;;;;;;;;;2.25;1.25;;;;;20.86;34.03;101727.59;5063834;28;51310;-46
2022/01/31 08:21:18;;;;;;;;;2.25;2.00;;;;;20.83;34.04;101735.41;5056979;28;51040;-48
2022/01/31 08:23:43;;;;;;;;;2.25;2.25;;;;;20.80;34.34;101725.66;5062100;28;50951;-46
2022/01/31 08:26:14;;;;;;;;;1.75;1.75;;;;;20.79;34.35;101723.94;5067208;27;50874;-48
2022/01/31 08:28:43;;;;;;;;;6.50;2.00;;;;;20.74;33.97;101727.34;5056110;28;52477;-46
2022/01/31 08:31:28;;;;;;;;;4.25;2.00;;;;;20.74;34.14;101705.31;5063196;28;51228;-47
2022/01/31 08:36:22;;;;;;;;;1.00;1.00;;;;;20.69;33.89;101716.06;5062823;28;51529;-49
2022/01/31 08:38:49;;;;;;;;;3.50;1.50;;;;;20.67;33.72;101720.91;5057969;28;51731;-46
2022/01/31 08:41:15;;;;;;;;;4.25;2.50;;;;;20.65;34.20;101723.03;5064076;28;51302;-46
2022/01/31 08:43:41;;;;;;;;;3.00;1.00;;;;;20.64;34.04;101715.84;5064295;28;51079;-45
2022/01/31 08:46:08;;;;;;;;;2.00;2.00;;;;;20.61;34.40;101707.97;5059305;28;51311;-47
2022/01/31 08:48:34;;;;;;;;;4.75;2.00;;;;;20.59;34.55;101723.81;5065190;28;51087;-48
2022/01/31 08:51:06;;;;;;;;;2.50;1.00;;;;;20.56;33.78;101729.75;5067233;28;51589;-52
2022/01/31 08:53:33;;;;;;;;;2.00;1.75;;;;;20.55;33.93;101750.06;5058033;28;50987;-47
2022/01/31 08:56:01;;;;;;;;;1.00;1.00;;;;;20.52;34.09;101739.44;5062374;28;51456;-49
2022/01/31 08:58:27;;;;;;;;;2.00;2.00;;;;;20.52;34.25;101771.63;5086665;27;51120;-51
2022/01/31 09:01:01;;;;;;;;;6.50;2.00;;;;;20.50;34.09;101760.81;5068629;28;51004;-46
2022/01/31 09:06:06;;;;;;;;;3.75;2.00;;;;;20.45;34.23;101739.41;5060968;28;51869;-47
2022/01/31 09:08:32;;;;;;;;;2.00;2.00;;;;;20.48;34.00;101746.41;5057809;28;51935;-49
2022/01/31 09:10:58;;;;;;;;;1.75;1.00;;;;;20.56;34.30;101739.91;5051558;28;51328;-47
2022/01/31 09:13:23;;;;;;;;;2.50;1.00;;;;;20.66;34.05;101718.38;5053178;28;51537;-46
2022/01/31 09:15:49;;;;;;;;;2.25;1.00;;;;;20.77;34.45;101725.22;5072803;27;51346;-45
2022/01/31 09:18:15;;;;;;;;;1.25;1.00;;;;;20.88;34.26;101719.13;5052904;28;51742;-47
2022/01/31 09:20:41;;;;;;;;;2.25;1.00;;;;;20.98;33.93;101725.97;5065571;28;51123;-46
2022/01/31 09:23:07;;;;;;;;;1.50;0.00;;;;;21.09;34.46;101723.69;5058320;28;51289;-49
2022/01/31 09:25:33;;;;;;;;;3.50;1.00;;;;;21.14;34.31;101719.25;5087777;27;51316;-50
2022/01/31 09:28:00;;;;;;;;;1.75;1.00;;;;;21.15;33.96;101737.47;5072474;28;51135;-47
2022/01/31 09:30:27;;;;;;;;;1.75;1.00;;;;;21.14;33.87;101730.25;5063805;28;50971;-47
2022/01/31 09:32:57;;;;;;;;;2.50;1.50;;;;;21.11;33.42;101725.16;5069097;28;51078;-50
2022/01/31 09:35:25;;;;;;;;;1.00;1.00;;;;;21.09;33.29;101737.47;5065964;28;51088;-46
2022/01/31 09:37:50;;;;;;;;;2.75;2.75;;;;;21.05;33.37;101739.78;5074781;28;52007;-48
2022/01/31 09:40:21;;;;;;;;;4.50;1.00;;;;;21.02;33.84;101729.16;5069455;28;51098;-49
2022/01/31 09:43:38;;;;;;;;;2.75;1.25;;;;;20.99;33.42;101746.94;5069909;28;51375;-47
2022/01/31 09:48:38;;;;;;;;;3.25;1.50;;;;;20.92;33.95;101737.78;5058710;28;50982;-47
2022/01/31 09:51:10;;;;;;;;;1.00;1.00;;;;;20.91;33.80;101749.00;5070418;28;51197;-46
2022/01/31 09:53:42;;;;;;;;;0.25;0.25;;;;;20.88;33.75;101738.41;5067407;28;51041;-46
2022/01/31 09:56:10;;;;;;;;;2.25;1.50;;;;;20.86;33.41;101726.75;5064327;28;51276;-47
2022/01/31 09:58:39;;;;;;;;;2.00;2.00;;;;;20.83;33.77;101733.50;5065822;28;50966;-47
2022/01/31 10:01:12;;;;;;;;;3.00;1.50;;;;;20.83;33.75;101746.41;5058816;28;51216;-49
2022/01/31 10:03:56;;;;;;;;;2.25;1.75;;;;;20.80;33.63;101742.16;5066306;28;51059;-47
2022/01/31 10:06:30;;;;;;;;;1.00;0.50;;;;;20.77;33.35;101738.97;5060385;28;51207;-48
2022/01/31 10:09:17;;;;;;;;;3.25;3.00;;;;;20.74;33.69;101743.84;5071530;28;53934;-48
2022/01/31 10:12:19;;;;;;;;;1.25;1.25;;;;;20.73;33.63;101771.56;5061421;28;51225;-47
2022/01/31 10:17:29;;;;;;;;;2.25;1.25;;;;;20.70;33.91;101758.19;5062526;27;52272;-46
2022/01/31 10:20:01;;;;;;;;;3.00;1.50;;;;;20.71;33.96;101768.16;5062309;28;53266;-47
2022/01/31 10:22:35;;;;;;;;;3.50;1.75;;;;;20.71;34.05;101769.00;5066395;28;51302;-45
2022/01/31 10:25:06;;;;;;;;;3.00;1.00;;;;;20.71;33.52;101779.19;5056825;28;51111;-51
2022/01/31 10:27:34;;;;;;;;;2.50;2.00;;;;;20.70;33.85;101767.31;5061613;28;51158;-48
2022/01/31 10:30:09;;;;;;;;;2.25;1.00;;;;;20.70;33.76;101780.22;5060768;28;52781;-46
2022/01/31 10:32:37;;;;;;;;;1.25;1.25;;;;;20.69;33.22;101784.88;5068002;28;51109;-48
2022/01/31 10:35:09;;;;;;;;;1.00;1.00;;;;;20.68;33.26;101772.19;5061698;28;51051;-47
2022/01/31 10:37:38;;;;;;;;;1.25;1.25;;;;;20.67;33.39;101791.66;5069330;28;51142;-49
2022/01/31 10:56:45;;;;;;;;;3.75;1.25;;;;;20.63;33.63;101793.94;5057584;28;51258;-46
2022/01/31 10:59:11;;;;;;;;;2.50;1.00;;;;;20.65;33.60;101799.28;5068301;28;50938;-47
2022/01/31 11:01:38;;;;;;;;;3.00;2.00;;;;;20.65;33.74;101797.38;5060262;28;51184;-45
2022/01/31 11:04:07;;;;;;;;;1.00;1.00;;;;;20.66;33.62;101801.81;5067758;27;51229;-49
2022/01/31 11:06:34;;;;;;;;;2.75;1.75;;;;;20.67;33.50;101798.00;5070859;28;51105;-52
2022/01/31 11:09:08;;;;;;;;;1.75;1.50;;;;;20.67;33.28;101789.75;5060922;28;51148;-45
2022/01/31 11:11:35;;;;;;;;;2.00;2.00;;;;;20.68;33.54;101802.47;5067981;28;53286;-47
2022/01/31 11:14:02;;;;;;;;;1.50;1.00;;;;;20.67;33.39;101795.25;5065042;28;51364;-47
2022/01/31 11:16:28;;;;;;;;;3.00;1.00;;;;;20.67;33.40;101788.91;5090993;27;51139;-45
2022/01/31 11:18:57;;;;;;;;;3.50;1.75;;;;;20.65;33.48;101788.25;5062570;28;51670;-46
2022/01/31 11:21:28;;;;;;;;;2.00;2.00;;;;;20.66;33.71;101806.47;5053550;28;52690;-43
2022/01/31 11:24:01;;;;;;;;;4.00;2.25;;;;;20.64;33.20;101786.56;5054882;28;52768;-44
2022/01/31 11:26:34;;;;;;;;;5.00;1.25;;;;;20.64;33.64;101794.81;5054740;28;51115;-43
2022/01/31 11:29:01;;;;;;;;;2.00;2.00;;;;;20.67;33.61;101800.75;5048519;28;51265;-47
2022/01/31 11:31:28;;;;;;;;;3.00;2.25;;;;;20.75;33.76;101795.09;5053278;28;51792;-44
2022/01/31 11:33:58;;;;;;;;;3.00;1.75;;;;;20.87;33.75;101789.03;5054869;28;51437;-44
2022/01/31 11:36:24;;;;;;;;;3.00;1.50;;;;;20.99;33.34;101812.19;5054985;28;51110;-47
2022/01/31 11:38:50;;;;;;;;;2.50;2.50;;;;;21.11;33.24;101801.47;5060152;28;51020;-46
2022/01/31 11:41:17;;;;;;;;;2.00;0.00;;;;;21.22;33.58;101792.63;5052908;28;52147;-47
2022/01/31 11:43:51;;;;;;;;;1.00;0.25;;;;;21.34;33.24;101804.78;5050440;28;51043;-48
2022/01/31 11:46:24;;;;;;;;;1.00;1.00;;;;;21.44;33.12;101818.19;5054215;28;51239;-49
2022/01/31 11:48:52;;;;;;;;;0.00;0.00;;;;;21.53;33.19;101797.66;5055816;28;51257;-47
2022/01/31 11:51:18;;;;;;;;;1.00;1.00;;;;;21.61;33.42;101808.50;5055027;28;51994;-47
2022/01/31 11:53:43;;;;;;;;;0.00;0.00;;;;;21.67;33.13;101813.19;5053771;28;50990;-46
2022/01/31 11:56:17;;;;;;;;;1.75;0.75;;;;;21.74;33.40;101815.97;5061684;28;50913;-47
2022/01/31 11:58:45;;;;;;;;;2.00;1.00;;;;;21.79;32.92;101841.03;5060707;28;51327;-47
2022/01/31 12:01:12;;;;;;;;;3.75;1.00;;;;;21.78;32.88;101899.97;5060935;28;51455;-45